createdAt,value
2019-03-25T00:00:38.256Z,12.30
2019-03-25T00:03:06.592Z,13.30
2019-03-25T00:05:34.898Z,13.07
2019-03-25T00:08:03.221Z,13.67
2019-03-25T00:10:31.516Z,13.43
2019-03-25T00:12:59.770Z,12.93
2019-03-25T00:15:28.002Z,12.23
2019-03-25T00:17:56.336Z,13.03
2019-03-25T00:20:24.709Z,12.47
2019-03-25T00:22:53.041Z,12.57
2019-03-25T00:25:21.274Z,12.73
2019-03-25T00:27:49.532Z,12.77
2019-03-25T00:30:17.833Z,11.03
2019-03-25T00:32:46.058Z,10.63
2019-03-25T00:35:14.393Z,11.17
2019-03-25T00:37:42.612Z,10.23
2019-03-25T00:40:10.935Z,9.73
2019-03-25T00:42:39.160Z,9.63
2019-03-25T00:45:07.884Z,8.90
2019-03-25T00:47:36.208Z,8.80
2019-03-25T00:50:05.533Z,8.43
2019-03-25T00:52:33.756Z,9.00
2019-03-25T00:55:02.080Z,8.30
2019-03-25T00:57:30.304Z,7.90
2019-03-25T00:59:58.601Z,8.30
2019-03-25T01:02:26.783Z,7.33
2019-03-25T01:04:55.041Z,8.27
2019-03-25T01:07:23.334Z,8.03
2019-03-25T01:09:51.668Z,7.47
2019-03-25T01:12:19.888Z,8.07
2019-03-25T01:14:48.116Z,7.47
2019-03-25T01:17:16.368Z,7.57
2019-03-25T01:19:44.700Z,7.30
2019-03-25T01:22:12.987Z,7.37
2019-03-25T01:24:41.260Z,7.30
2019-03-25T01:27:09.480Z,6.83
2019-03-25T01:29:37.808Z,7.17
2019-03-25T01:32:06.135Z,7.43
2019-03-25T01:34:34.431Z,7.20
2019-03-25T01:37:02.691Z,6.97
2019-03-25T01:39:30.925Z,6.97
2019-03-25T01:41:59.173Z,6.30
2019-03-25T01:44:27.397Z,6.50
2019-03-25T01:46:55.693Z,6.20
2019-03-25T01:49:23.945Z,6.40
2019-03-25T01:51:52.204Z,6.53
2019-03-25T01:54:20.465Z,6.33
2019-03-25T01:56:48.752Z,7.13
2019-03-25T01:59:17.076Z,6.27
2019-03-25T02:01:45.329Z,6.60
2019-03-25T02:04:13.641Z,6.10
2019-03-25T02:06:41.956Z,5.70
2019-03-25T02:09:10.246Z,6.00
2019-03-25T02:11:38.513Z,5.90
2019-03-25T02:14:06.804Z,6.37
2019-03-25T02:16:35.792Z,6.20
2019-03-25T02:19:04.184Z,6.60
2019-03-25T02:21:32.590Z,7.00
2019-03-25T02:24:00.809Z,6.60
2019-03-25T02:26:29.035Z,7.17
2019-03-25T02:28:57.284Z,6.80
2019-03-25T02:31:25.526Z,6.83
2019-03-25T02:33:53.785Z,6.53
2019-03-25T02:36:22.005Z,6.27
2019-03-25T02:38:50.421Z,6.20
2019-03-25T02:41:19.252Z,6.70
2019-03-25T02:43:47.679Z,6.60
2019-03-25T02:46:15.898Z,6.10
2019-03-25T02:48:44.161Z,5.70
2019-03-25T02:51:12.391Z,6.37
2019-03-25T02:53:40.649Z,5.97
2019-03-25T02:56:08.871Z,6.83
2019-03-25T02:58:37.164Z,5.70
2019-03-25T03:01:05.420Z,6.37
2019-03-25T03:03:33.673Z,6.13
2019-03-25T03:06:01.909Z,5.73
2019-03-25T03:08:30.168Z,5.90
2019-03-25T03:10:58.398Z,5.60
2019-03-25T03:13:26.624Z,5.50
2019-03-25T03:15:54.952Z,5.80
2019-03-25T03:18:23.201Z,5.43
2019-03-25T03:20:51.443Z,5.47
2019-03-25T03:23:19.653Z,4.90
2019-03-25T03:25:57.361Z,5.00
2019-03-25T03:28:17.917Z,4.60
2019-03-25T03:30:46.184Z,4.47
2019-03-25T03:33:14.406Z,4.87
2019-03-25T03:35:46.236Z,4.60
2019-03-25T03:38:12.537Z,4.67
2019-03-25T03:40:40.790Z,4.40
2019-03-25T03:43:09.018Z,4.63
2019-03-25T03:45:37.264Z,4.33
2019-03-25T03:48:05.590Z,4.40
2019-03-25T03:50:33.811Z,5.13
2019-03-25T03:53:02.137Z,4.37
2019-03-25T03:55:31.561Z,4.87
2019-03-25T03:57:59.774Z,5.00
2019-03-25T04:00:29.196Z,4.60
2019-03-25T04:02:57.417Z,4.57
2019-03-25T04:05:25.748Z,5.37
2019-03-25T04:07:54.036Z,4.07
2019-03-25T04:10:22.307Z,4.30
2019-03-25T04:12:50.602Z,4.93
2019-03-25T04:15:25.871Z,4.93
2019-03-25T04:17:54.184Z,4.80
2019-03-25T04:20:22.435Z,4.10
2019-03-25T04:22:50.656Z,4.47
2019-03-25T04:25:18.895Z,5.30
2019-03-25T04:27:47.150Z,4.73
2019-03-25T04:30:15.434Z,4.40
2019-03-25T04:32:44.483Z,5.17
2019-03-25T04:35:16.490Z,4.67
2019-03-25T04:37:44.898Z,4.50
2019-03-25T04:40:13.203Z,4.77
2019-03-25T04:42:41.454Z,4.47
2019-03-25T04:45:09.848Z,4.47
2019-03-25T04:47:38.315Z,4.47
2019-03-25T04:50:06.810Z,4.60
2019-03-25T04:52:35.061Z,4.63
2019-03-25T04:55:03.557Z,4.83
2019-03-25T04:57:31.853Z,4.87
2019-03-25T05:00:00.356Z,5.40
2019-03-25T05:02:28.911Z,4.90
2019-03-25T05:04:57.229Z,4.83
2019-03-25T05:07:25.459Z,4.83
2019-03-25T05:09:53.712Z,5.03
2019-03-25T05:12:21.944Z,5.23
2019-03-25T05:14:50.197Z,5.07
2019-03-25T05:17:18.432Z,6.30
2019-03-25T05:19:56.835Z,5.73
2019-03-25T05:22:23.863Z,5.77
2019-03-25T05:24:52.185Z,5.13
2019-03-25T05:27:20.556Z,5.10
2019-03-25T05:29:48.905Z,5.33
2019-03-25T05:32:17.218Z,5.00
2019-03-25T05:34:45.592Z,5.37
2019-03-25T05:37:13.844Z,5.20
2019-03-25T05:39:42.072Z,5.67
2019-03-25T05:42:10.392Z,5.00
2019-03-25T05:44:38.943Z,5.17
2019-03-25T05:47:07.280Z,5.53
2019-03-25T05:49:35.537Z,5.80
2019-03-25T05:52:03.834Z,5.83
2019-03-25T05:54:32.083Z,5.33
2019-03-25T05:57:02.859Z,5.60
2019-03-25T05:59:30.280Z,5.63
2019-03-25T06:01:58.577Z,5.10
2019-03-25T06:04:26.792Z,5.60
2019-03-25T06:06:55.057Z,5.37
2019-03-25T06:09:23.358Z,5.00
2019-03-25T06:11:51.609Z,5.57
2019-03-25T06:14:19.823Z,6.00
2019-03-25T06:16:48.053Z,6.20
2019-03-25T06:19:16.381Z,6.03
2019-03-25T06:21:44.754Z,5.50
2019-03-25T06:24:13.154Z,5.87
2019-03-25T06:26:41.388Z,6.13
2019-03-25T06:29:09.797Z,6.50
2019-03-25T06:31:38.024Z,5.60
2019-03-25T06:34:06.304Z,6.53
2019-03-25T06:36:34.542Z,6.43
2019-03-25T06:39:02.759Z,6.70
2019-03-25T06:41:31.076Z,6.53
2019-03-25T06:43:59.313Z,7.03
2019-03-25T06:46:27.565Z,6.90
2019-03-25T06:48:55.899Z,6.47
2019-03-25T06:51:24.116Z,6.73
2019-03-25T06:53:52.372Z,7.43
2019-03-25T06:56:20.671Z,5.80
2019-03-25T06:58:48.973Z,7.40
2019-03-25T07:01:17.222Z,7.67
2019-03-25T07:03:45.523Z,6.50
2019-03-25T07:06:13.763Z,7.60
2019-03-25T07:08:42.014Z,6.83
2019-03-25T07:11:10.712Z,6.20
2019-03-25T07:13:38.968Z,7.83
2019-03-25T07:16:07.308Z,7.30
2019-03-25T07:18:35.595Z,7.23
2019-03-25T07:21:03.928Z,7.40
2019-03-25T07:23:32.226Z,8.43
2019-03-25T07:26:00.560Z,6.73
2019-03-25T07:28:28.879Z,7.10
2019-03-25T07:30:57.437Z,6.93
2019-03-25T07:33:25.716Z,6.83
2019-03-25T07:35:54.047Z,7.10
2019-03-25T07:38:22.340Z,6.63
2019-03-25T07:40:50.588Z,7.30
2019-03-25T07:43:18.817Z,6.30
2019-03-25T07:45:47.107Z,6.60
2019-03-25T07:48:15.364Z,5.80
2019-03-25T07:50:43.608Z,5.80
2019-03-25T07:53:11.876Z,5.73
2019-03-25T07:55:40.182Z,5.80
2019-03-25T07:58:08.424Z,6.50
2019-03-25T08:00:36.713Z,6.00
2019-03-25T08:03:05.049Z,5.80
2019-03-25T08:05:33.355Z,5.67
2019-03-25T08:08:01.616Z,6.03
2019-03-25T08:10:31.004Z,6.33
2019-03-25T08:12:59.763Z,5.83
2019-03-25T08:15:27.970Z,6.23
2019-03-25T08:17:56.218Z,5.70
2019-03-25T08:20:24.445Z,5.97
2019-03-25T08:22:52.697Z,5.70
2019-03-25T08:25:21.005Z,5.73
2019-03-25T08:27:59.477Z,5.93
2019-03-25T08:30:19.600Z,5.90
2019-03-25T08:32:47.824Z,5.83
2019-03-25T08:35:16.080Z,5.50
2019-03-25T08:37:44.301Z,6.43
2019-03-25T08:40:13.741Z,6.27
2019-03-25T08:42:41.956Z,6.13
2019-03-25T08:45:10.385Z,6.87
2019-03-25T08:47:38.674Z,6.77
2019-03-25T08:50:07.624Z,6.73
2019-03-25T08:52:35.920Z,6.07
2019-03-25T08:55:05.282Z,6.97
2019-03-25T08:57:33.540Z,6.93
2019-03-25T09:00:01.832Z,6.80
2019-03-25T09:02:30.088Z,6.83
2019-03-25T09:04:58.384Z,6.20
2019-03-25T09:07:26.718Z,7.10
2019-03-25T09:09:54.940Z,6.00
2019-03-25T09:12:23.273Z,6.37
2019-03-25T09:14:51.570Z,6.70
2019-03-25T09:17:19.828Z,6.53
2019-03-25T09:19:48.057Z,7.00
2019-03-25T09:22:16.280Z,7.37
2019-03-25T09:24:44.530Z,6.90
2019-03-25T09:27:12.773Z,7.40
2019-03-25T09:29:41.084Z,7.63
2019-03-25T09:32:09.387Z,8.17
2019-03-25T09:34:37.631Z,7.37
2019-03-25T09:37:05.932Z,7.73
2019-03-25T09:39:34.192Z,7.30
2019-03-25T09:42:02.491Z,7.67
2019-03-25T09:44:30.809Z,7.80
2019-03-25T09:46:59.100Z,6.63
2019-03-25T09:49:27.421Z,7.23
2019-03-25T09:51:55.713Z,7.03
2019-03-25T09:54:23.936Z,7.67
2019-03-25T09:56:52.272Z,6.93
2019-03-25T09:59:20.492Z,5.73
2019-03-25T10:01:48.766Z,6.23
2019-03-25T10:04:16.989Z,5.80
2019-03-25T10:06:45.319Z,5.20
2019-03-25T10:09:13.540Z,5.47
2019-03-25T10:11:41.838Z,5.90
2019-03-25T10:14:10.100Z,4.80
2019-03-25T10:16:38.367Z,5.07
2019-03-25T10:19:06.653Z,4.80
2019-03-25T10:21:34.985Z,5.07
2019-03-25T10:24:03.258Z,4.90
2019-03-25T10:26:31.535Z,4.80
2019-03-25T10:28:59.792Z,4.43
2019-03-25T10:31:28.022Z,4.67
2019-03-25T10:33:56.413Z,4.87
2019-03-25T10:36:24.639Z,4.40
2019-03-25T10:38:52.893Z,4.10
2019-03-25T10:41:21.196Z,4.20
2019-03-25T10:43:49.449Z,4.20
2019-03-25T10:46:17.711Z,3.90
2019-03-25T10:48:46.208Z,3.50
2019-03-25T10:51:14.440Z,4.03
2019-03-25T10:53:42.652Z,3.83
2019-03-25T10:56:10.976Z,3.80
2019-03-25T10:58:39.265Z,2.43
2019-03-25T11:01:09.522Z,2.30
2019-03-25T11:03:37.804Z,2.70
2019-03-25T11:06:06.385Z,2.50
2019-03-25T11:08:34.683Z,2.33
2019-03-25T11:11:03.573Z,2.50
2019-03-25T11:13:32.217Z,3.07
2019-03-25T11:16:00.548Z,2.63
2019-03-25T11:18:28.788Z,2.90
2019-03-25T11:20:57.116Z,2.60
2019-03-25T11:23:25.448Z,3.10
2019-03-25T11:25:53.740Z,2.53
2019-03-25T11:28:22.764Z,2.80
2019-03-25T11:30:54.885Z,2.57
2019-03-25T11:33:23.204Z,2.23
2019-03-25T11:35:51.700Z,2.03
2019-03-25T11:38:20.020Z,2.33
2019-03-25T11:40:48.312Z,1.87
2019-03-25T11:43:16.529Z,1.90
2019-03-25T11:45:44.857Z,2.20
2019-03-25T11:48:13.153Z,2.50
2019-03-25T11:50:41.405Z,2.90
2019-03-25T11:53:09.694Z,2.80
2019-03-25T11:55:37.954Z,2.53
2019-03-25T11:58:06.240Z,2.23
2019-03-25T12:00:34.538Z,2.10
2019-03-25T12:03:02.855Z,2.60
2019-03-25T12:05:31.174Z,1.70
2019-03-25T12:07:59.428Z,2.10
2019-03-25T12:10:27.661Z,1.90
2019-03-25T12:12:55.989Z,2.30
2019-03-25T12:15:24.281Z,2.20
2019-03-25T12:17:52.540Z,2.43
2019-03-25T12:20:20.794Z,2.33
2019-03-25T12:22:49.043Z,2.47
2019-03-25T12:25:17.268Z,2.70
2019-03-25T12:27:45.520Z,3.30
2019-03-25T12:30:14.108Z,2.83
2019-03-25T12:32:42.378Z,2.70
2019-03-25T12:35:10.756Z,2.60
2019-03-25T12:37:38.991Z,2.60
2019-03-25T12:40:08.047Z,2.10
2019-03-25T12:42:36.636Z,1.80
2019-03-25T12:45:06.645Z,1.70
2019-03-25T12:47:34.878Z,2.13
2019-03-25T12:50:03.588Z,2.10
2019-03-25T12:52:31.873Z,2.20
2019-03-25T12:55:00.262Z,2.00
2019-03-25T12:57:28.749Z,1.90
2019-03-25T12:59:56.997Z,2.00
2019-03-25T13:02:25.249Z,2.07
2019-03-25T13:04:53.473Z,2.13
2019-03-25T13:07:21.793Z,2.37
2019-03-25T13:09:50.025Z,2.57
2019-03-25T13:12:18.283Z,2.37
2019-03-25T13:14:46.577Z,2.20
2019-03-25T13:17:14.795Z,3.47
2019-03-25T13:19:43.049Z,2.43
2019-03-25T13:22:11.368Z,1.80
2019-03-25T13:24:39.588Z,1.70
2019-03-25T13:27:07.899Z,1.77
2019-03-25T13:29:36.223Z,1.87
2019-03-25T13:32:04.441Z,1.77
2019-03-25T13:34:32.895Z,1.37
2019-03-25T13:37:01.598Z,1.70
2019-03-25T13:39:29.988Z,1.40
2019-03-25T13:41:58.293Z,1.70
2019-03-25T13:44:26.623Z,1.73
2019-03-25T13:46:54.949Z,1.60
2019-03-25T13:49:23.280Z,1.67
2019-03-25T13:51:51.640Z,1.50
2019-03-25T13:54:19.936Z,1.73
2019-03-25T13:56:48.264Z,1.70
2019-03-25T13:59:16.559Z,1.40
2019-03-25T14:01:45.084Z,1.40
2019-03-25T14:04:13.420Z,1.50
2019-03-25T14:06:41.620Z,1.70
2019-03-25T14:09:09.840Z,2.30
2019-03-25T14:11:38.087Z,1.30
2019-03-25T14:14:06.331Z,0.90
2019-03-25T14:16:34.556Z,0.60
2019-03-25T14:19:02.808Z,0.80
2019-03-25T14:21:31.140Z,0.80
2019-03-25T14:23:59.363Z,1.30
2019-03-25T14:26:27.681Z,1.23
2019-03-25T14:28:55.909Z,1.10
2019-03-25T14:31:24.175Z,1.20
2019-03-25T14:33:52.399Z,1.30
2019-03-25T14:36:20.648Z,1.30
2019-03-25T14:38:48.872Z,1.30
2019-03-25T14:41:17.192Z,1.70
2019-03-25T14:43:45.416Z,1.00
2019-03-25T14:46:13.743Z,1.07
2019-03-25T14:48:42.028Z,1.20
2019-03-25T14:51:10.358Z,1.10
2019-03-25T14:53:45.326Z,1.30
2019-03-25T14:56:08.484Z,1.30
2019-03-25T14:58:37.461Z,1.20
2019-03-25T15:01:06.293Z,1.30
2019-03-25T15:03:34.517Z,1.20
2019-03-25T15:06:02.769Z,1.47
2019-03-25T15:08:31.440Z,1.27
2019-03-25T15:11:00.848Z,1.00
2019-03-25T15:13:29.162Z,1.20
2019-03-25T15:15:57.393Z,1.20
2019-03-25T15:18:25.789Z,1.07
2019-03-25T15:20:54.216Z,1.10
2019-03-25T15:23:22.544Z,1.20
2019-03-25T15:25:50.774Z,1.43
2019-03-25T15:28:19.093Z,1.30
2019-03-25T15:30:47.605Z,1.40
2019-03-25T15:33:16.065Z,1.00
2019-03-25T15:35:44.337Z,1.70
2019-03-25T15:38:12.658Z,1.10
2019-03-25T15:40:40.949Z,1.10
2019-03-25T15:43:09.265Z,0.93
2019-03-25T15:45:37.824Z,0.90
2019-03-25T15:48:06.385Z,1.20
2019-03-25T15:50:34.676Z,1.00
2019-03-25T15:53:02.998Z,1.30
2019-03-25T15:55:31.636Z,1.17
2019-03-25T15:57:59.941Z,0.90
2019-03-25T16:00:28.237Z,1.53
2019-03-25T16:02:56.569Z,0.87
2019-03-25T16:05:24.929Z,1.07
2019-03-25T16:07:53.328Z,0.97
2019-03-25T16:10:21.652Z,1.30
2019-03-25T16:12:49.985Z,0.80
2019-03-25T16:15:19.760Z,1.30
2019-03-25T16:17:48.303Z,2.63
2019-03-25T16:20:16.667Z,1.90
2019-03-25T16:22:46.490Z,1.80
2019-03-25T16:25:17.269Z,1.90
2019-03-25T16:27:45.636Z,1.20
2019-03-25T16:30:14.040Z,1.20
2019-03-25T16:32:42.369Z,0.70
2019-03-25T16:35:11.582Z,1.00
2019-03-25T16:37:40.335Z,0.70
2019-03-25T16:40:08.627Z,0.73
2019-03-25T16:42:36.959Z,0.80
2019-03-25T16:45:05.448Z,0.70
2019-03-25T16:47:33.805Z,0.77
2019-03-25T16:50:02.339Z,0.97
2019-03-25T16:52:30.695Z,1.00
2019-03-25T16:54:59.429Z,0.97
2019-03-25T16:57:28.009Z,1.07
2019-03-25T16:59:56.674Z,1.00
2019-03-25T17:02:27.981Z,1.13
2019-03-25T17:04:56.806Z,1.03
2019-03-25T17:07:25.089Z,1.10
2019-03-25T17:09:53.828Z,1.00
2019-03-25T17:12:22.032Z,1.20
2019-03-25T17:14:50.334Z,0.90
2019-03-25T17:17:18.582Z,1.30
2019-03-25T17:19:46.884Z,5.43
2019-03-25T17:22:15.309Z,1.50
2019-03-25T17:24:43.777Z,1.13
2019-03-25T17:27:12.101Z,1.10
2019-03-25T17:29:40.706Z,1.03
2019-03-25T17:32:09.205Z,1.00
2019-03-25T17:34:37.509Z,1.13
2019-03-25T17:37:06.153Z,1.10
2019-03-25T17:39:34.451Z,1.20
2019-03-25T17:42:02.823Z,1.27
2019-03-25T17:44:31.070Z,1.10
2019-03-25T17:46:59.373Z,1.40
2019-03-25T17:49:27.684Z,1.40
2019-03-25T17:51:55.982Z,1.40
2019-03-25T17:54:24.307Z,1.53
2019-03-25T17:56:52.591Z,1.30
2019-03-25T17:59:21.263Z,1.47
2019-03-25T18:01:50.026Z,2.13
2019-03-25T18:04:18.324Z,2.00
2019-03-25T18:06:46.624Z,1.40
2019-03-25T18:09:14.918Z,1.50
2019-03-25T18:11:43.235Z,1.40
2019-03-25T18:14:11.500Z,1.40
2019-03-25T18:16:39.734Z,1.67
2019-03-25T18:19:08.017Z,1.80
2019-03-25T18:21:36.281Z,2.20
2019-03-25T18:24:04.642Z,2.10
2019-03-25T18:26:32.968Z,1.63
2019-03-25T18:29:01.193Z,1.50
2019-03-25T18:31:29.450Z,1.30
2019-03-25T18:33:57.736Z,1.30
2019-03-25T18:36:27.112Z,1.10
2019-03-25T18:38:55.365Z,1.07
2019-03-25T18:41:23.652Z,1.20
2019-03-25T18:43:51.972Z,1.00
2019-03-25T18:46:20.269Z,0.80
2019-03-25T18:48:48.684Z,0.73
2019-03-25T18:51:16.972Z,0.77
2019-03-25T18:53:45.309Z,1.00
2019-03-25T18:56:13.575Z,1.10
2019-03-25T18:58:41.902Z,0.80
2019-03-25T19:01:10.124Z,0.93
2019-03-25T19:03:38.390Z,0.70
2019-03-25T19:06:07.568Z,0.50
2019-03-25T19:08:38.261Z,0.70
2019-03-25T19:11:05.719Z,0.90
2019-03-25T19:13:33.956Z,0.90
2019-03-25T19:16:02.264Z,0.90
2019-03-25T19:18:30.496Z,1.00
2019-03-25T19:20:58.717Z,1.20
2019-03-25T19:23:26.969Z,1.70
2019-03-25T19:25:55.240Z,1.97
2019-03-25T19:28:23.601Z,1.13
2019-03-25T19:30:51.869Z,1.17
2019-03-25T19:33:20.207Z,1.67
2019-03-25T19:35:48.432Z,1.57
2019-03-25T19:38:16.720Z,1.73
2019-03-25T19:40:44.880Z,1.33
2019-03-25T19:43:13.214Z,1.33
2019-03-25T19:45:41.480Z,1.20
2019-03-25T19:48:09.729Z,1.13
2019-03-25T19:50:38.077Z,1.20
2019-03-25T19:53:18.326Z,1.60
2019-03-25T19:55:37.871Z,1.60
2019-03-25T19:58:06.342Z,1.10
2019-03-25T20:00:36.139Z,1.40
2019-03-25T20:03:05.060Z,1.27
2019-03-25T20:05:33.396Z,1.50
2019-03-25T20:08:01.695Z,1.80
2019-03-25T20:10:31.639Z,2.10
2019-03-25T20:12:59.980Z,1.43
2019-03-25T20:15:31.189Z,1.50
2019-03-25T20:17:58.164Z,1.80
2019-03-25T20:20:26.534Z,2.30
2019-03-25T20:22:54.817Z,2.40
2019-03-25T20:25:23.121Z,3.87
2019-03-25T20:27:51.463Z,3.40
2019-03-25T20:30:19.709Z,2.77
2019-03-25T20:32:47.995Z,2.30
2019-03-25T20:35:16.259Z,2.00
2019-03-25T20:37:44.568Z,1.90
2019-03-25T20:40:12.903Z,1.73
2019-03-25T20:42:41.099Z,1.40
2019-03-25T20:45:09.632Z,1.40
2019-03-25T20:47:37.817Z,1.80
2019-03-25T20:50:06.097Z,1.90
2019-03-25T20:52:34.417Z,1.80
2019-03-25T20:55:02.681Z,1.90
2019-03-25T20:57:30.954Z,2.40
2019-03-25T20:59:59.163Z,2.37
2019-03-25T21:02:27.466Z,1.90
2019-03-25T21:04:55.637Z,1.60
2019-03-25T21:07:23.900Z,1.80
2019-03-25T21:09:52.163Z,1.70
2019-03-25T21:12:20.500Z,1.40
2019-03-25T21:14:48.803Z,1.60
2019-03-25T21:17:17.147Z,1.60
2019-03-25T21:19:45.457Z,1.50
2019-03-25T21:22:13.690Z,1.60
2019-03-25T21:24:42.010Z,1.50
2019-03-25T21:27:10.156Z,1.60
2019-03-25T21:29:38.407Z,1.97
2019-03-25T21:32:06.929Z,1.90
2019-03-25T21:34:35.166Z,2.10
2019-03-25T21:37:05.717Z,2.07
2019-03-25T21:39:33.357Z,1.67
2019-03-25T21:42:01.585Z,1.70
2019-03-25T21:44:29.827Z,1.70
2019-03-25T21:46:58.044Z,1.83
2019-03-25T21:49:26.385Z,2.20
2019-03-25T21:51:54.797Z,2.07
2019-03-25T21:54:22.950Z,2.00
2019-03-25T21:56:51.711Z,1.90
2019-03-25T21:59:20.068Z,1.70
2019-03-25T22:01:48.375Z,1.60
2019-03-25T22:04:16.536Z,1.90
2019-03-25T22:06:44.794Z,2.27
2019-03-25T22:09:13.084Z,1.97
2019-03-25T22:11:41.332Z,2.40
2019-03-25T22:14:09.562Z,1.90
2019-03-25T22:16:37.884Z,1.77
2019-03-25T22:19:06.208Z,1.87
2019-03-25T22:21:34.434Z,1.93
2019-03-25T22:24:02.694Z,2.00
2019-03-25T22:26:30.960Z,1.87
2019-03-25T22:28:59.192Z,1.90
2019-03-25T22:31:27.439Z,2.03
2019-03-25T22:33:55.661Z,1.80
2019-03-25T22:36:23.931Z,2.30
2019-03-25T22:38:52.138Z,2.13
2019-03-25T22:41:20.388Z,2.33
2019-03-25T22:43:48.614Z,2.03
2019-03-25T22:46:16.859Z,2.00
2019-03-25T22:48:45.080Z,2.13
2019-03-25T22:51:13.403Z,2.77
2019-03-25T22:53:41.628Z,2.80
2019-03-25T22:56:09.880Z,2.83
2019-03-25T22:58:38.110Z,3.33
2019-03-25T23:01:06.397Z,3.47
2019-03-25T23:03:39.461Z,3.80
2019-03-25T23:06:04.668Z,4.10
2019-03-25T23:08:32.922Z,4.30
2019-03-25T23:11:01.139Z,4.10
2019-03-25T23:13:29.392Z,3.93
2019-03-25T23:15:57.624Z,4.10
2019-03-25T23:18:25.880Z,4.43
2019-03-25T23:20:54.104Z,4.90
2019-03-25T23:23:22.360Z,4.63
2019-03-25T23:25:50.576Z,5.53
2019-03-25T23:28:18.828Z,5.13
2019-03-25T23:30:47.059Z,5.00
2019-03-25T23:33:15.304Z,4.77
2019-03-25T23:35:43.521Z,4.60
2019-03-25T23:38:11.778Z,4.80
2019-03-25T23:40:39.992Z,4.57
2019-03-25T23:43:08.245Z,4.33
2019-03-25T23:45:36.536Z,4.33
2019-03-25T23:48:04.820Z,4.50
2019-03-25T23:50:33.082Z,4.37
2019-03-25T23:53:01.300Z,3.90
2019-03-25T23:55:29.624Z,4.00
2019-03-25T23:57:57.839Z,4.27
